TimeAKST,TemperatureF,Dew PointF,Humidity,Sea Level PressureIn,VisibilityMPH,Wind Direction,Wind SpeedMPH,Gust SpeedMPH,PrecipitationIn,Events,Conditions,WindDirDegrees,DateUTC
12:53 AM,46.9,42.1,83,29.83,10.0,SE,10.4,17.3,0.03,Rain,Light Rain,140,2012-11-05 09:53:00
1:53 AM,46.0,41.0,83,29.87,10.0,ESE,15.0,-,0.04,,Overcast,120,2012-11-05 10:53:00
2:05 AM,46.4,42.8,87,29.87,10.0,SSE,12.7,-,0.00,Rain,Light Rain,150,2012-11-05 11:05:00
3:23 AM,46.4,42.8,87,29.93,7.0,Variable,3.5,-,0.05,Rain,Light Rain,0,2012-11-05 12:23:00
3:53 AM,46.0,39.9,79,29.95,10.0,SSE,8.1,-,0.07,Rain,Light Rain,160,2012-11-05 12:53:00
4:16 AM,46.4,41.0,81,29.96,10.0,SE,8.1,-,0.02,Rain,Light Rain,140,2012-11-05 13:16:00
4:38 AM,46.4,39.2,76,29.99,10.0,SE,8.1,18.4,0.02,Rain,Light Rain,130,2012-11-05 13:38:00
4:53 AM,46.0,39.9,79,30.00,8.0,SE,6.9,-,0.05,Rain,Light Rain,130,2012-11-05 13:53:00
5:53 AM,45.0,39.9,82,30.04,10.0,SE,9.2,-,0.00,Rain,Light Rain,130,2012-11-05 14:53:00
6:53 AM,44.1,39.9,85,30.08,10.0,SSE,5.8,-,0.00,,Overcast,150,2012-11-05 15:53:00
7:53 AM,44.1,39.9,85,30.11,10.0,SSE,5.8,-,0.02,,Overcast,150,2012-11-05 16:53:00
8:53 AM,44.1,37.9,79,30.15,10.0,SE,8.1,-,0.06,,Mostly Cloudy,130,2012-11-05 17:53:00
9:53 AM,44.1,39.9,85,30.18,10.0,SE,10.4,-,N/A,,Overcast,140,2012-11-05 18:53:00
10:53 AM,45.0,41.0,86,30.20,10.0,SE,10.4,-,N/A,,Overcast,130,2012-11-05 19:53:00
11:53 AM,44.1,39.9,85,30.22,5.0,Variable,3.5,-,0.07,Rain,Light Rain,0,2012-11-05 20:53:00
12:53 PM,44.1,42.1,93,30.21,6.0,SE,8.1,-,0.03,Rain,Light Rain,140,2012-11-05 21:53:00
1:53 PM,42.1,39.0,89,30.22,3.0,WSW,3.5,-,0.13,Rain,Heavy Rain,240,2012-11-05 22:53:00
2:53 PM,44.1,41.0,89,30.21,10.0,SE,6.9,-,0.05,,Mostly Cloudy,140,2012-11-05 23:53:00
3:53 PM,44.1,39.0,82,30.19,10.0,ESE,16.1,-,N/A,,Mostly Cloudy,110,2012-11-06 00:53:00
4:53 PM,44.1,39.9,85,30.19,10.0,SE,10.4,19.6,N/A,,Overcast,140,2012-11-06 01:53:00
5:53 PM,44.1,39.9,85,30.17,10.0,SE,10.4,-,N/A,,Overcast,140,2012-11-06 02:53:00
6:53 PM,43.0,39.0,86,30.16,10.0,SSE,5.8,-,N/A,,Mostly Cloudy,160,2012-11-06 03:53:00
7:53 PM,44.1,39.9,85,30.14,10.0,SSE,9.2,-,N/A,,Overcast,150,2012-11-06 04:53:00
8:53 PM,46.0,42.1,86,30.13,10.0,SE,12.7,21.9,N/A,,Overcast,140,2012-11-06 05:53:00
9:53 PM,46.0,42.1,86,30.10,10.0,SE,12.7,-,N/A,,Overcast,130,2012-11-06 06:53:00
10:53 PM,45.0,41.0,86,30.09,10.0,SE,12.7,-,N/A,,Overcast,140,2012-11-06 07:53:00
11:53 PM,45.0,39.9,82,30.06,10.0,SE,13.8,-,0.00,Rain,Light Rain,140,2012-11-06 08:53:00